Time;durP1;ratioP1;P1;durP2;ratioP2;P2;SDS_P1;SDS_P2;PMS_P1;PMS_P2;Temp;Humidity;BMP_temperature;BMP_pressure;BME280_temperature;BME280_humidity;BME280_pressure;Samples;Min_cycle;Max_cycle;Signal;HPM_P1;HPM_P2
2023/08/23 00:01:52;;;;;;;5.75;5.25;;;;;;;24.89;100.00;96847.38;5041645;28;20211;-64
2023/08/23 00:04:19;;;;;;;5.97;5.40;;;;;;;24.86;100.00;96836.19;5041920;28;20239;-65
2023/08/23 00:06:46;;;;;;;6.13;5.60;;;;;;;24.82;100.00;96834.94;5040706;28;20269;-63
2023/08/23 00:09:12;;;;;;;8.98;5.18;;;;;;;24.81;100.00;96833.28;5041809;28;20195;-63
2023/08/23 00:11:41;;;;;;;5.95;5.30;;;;;;;24.75;100.00;96835.03;5041522;28;20643;-64
2023/08/23 00:14:08;;;;;;;8.15;5.88;;;;;;;24.74;100.00;96830.66;5041254;28;20221;-65
2023/08/23 00:16:35;;;;;;;6.63;5.40;;;;;;;24.72;100.00;96832.78;5042496;28;20211;-65
2023/08/23 00:19:01;;;;;;;6.13;5.18;;;;;;;24.66;100.00;96831.81;5041890;28;20218;-63
2023/08/23 00:21:28;;;;;;;6.63;5.47;;;;;;;24.65;100.00;96830.16;5041508;28;20200;-65
2023/08/23 00:23:55;;;;;;;6.07;5.38;;;;;;;24.63;100.00;96836.84;5042019;28;20349;-65
2023/08/23 00:26:22;;;;;;;5.90;5.40;;;;;;;24.63;100.00;96837.66;5041470;28;20210;-65
2023/08/23 00:28:49;;;;;;;5.68;5.18;;;;;;;24.64;100.00;96835.78;5040888;28;20203;-64
2023/08/23 00:31:18;;;;;;;5.93;5.43;;;;;;;24.59;100.00;96839.16;5041746;28;20200;-64
2023/08/23 00:33:45;;;;;;;6.85;5.45;;;;;;;24.57;100.00;96835.88;5049264;28;20318;-65
2023/08/23 00:36:12;;;;;;;6.57;5.57;;;;;;;24.54;100.00;96839.03;5062541;28;20221;-64
2023/08/23 00:38:39;;;;;;;6.60;5.93;;;;;;;24.49;100.00;96841.59;5054851;28;20207;-65
2023/08/23 00:41:05;;;;;;;6.07;5.55;;;;;;;24.48;100.00;96834.50;5043337;28;20647;-64
2023/08/23 00:43:31;;;;;;;5.68;5.13;;;;;;;24.45;100.00;96834.13;5058281;28;20215;-64
2023/08/23 00:45:59;;;;;;;5.78;5.20;;;;;;;24.40;100.00;96834.84;5058529;28;20231;-65
2023/08/23 00:48:29;;;;;;;5.95;5.43;;;;;;;24.35;100.00;96840.06;5051519;28;20200;-63
2023/08/23 00:50:56;;;;;;;5.90;5.40;;;;;;;24.33;100.00;96839.50;5047311;28;20219;-63
2023/08/23 00:53:23;;;;;;;7.30;5.25;;;;;;;24.30;100.00;96839.94;5057085;28;20211;-64
2023/08/23 00:55:50;;;;;;;5.80;5.30;;;;;;;24.29;100.00;96840.97;5061054;28;20210;-66
2023/08/23 00:58:17;;;;;;;7.40;5.15;;;;;;;24.25;100.00;96835.19;5059272;28;20205;-64
2023/08/23 01:00:45;;;;;;;6.68;5.20;;;;;;;24.26;100.00;96831.47;5043437;28;20218;-63
2023/08/23 01:03:14;;;;;;;8.18;6.00;;;;;;;24.22;100.00;96829.41;5043931;28;20212;-64
2023/08/23 01:05:48;;;;;;;6.32;5.72;;;;;;;24.18;100.00;96829.03;5042293;28;20230;-64
2023/08/23 01:08:28;;;;;;;6.00;5.40;;;;;;;24.13;100.00;96830.75;5043310;28;20539;-67
2023/08/23 01:10:58;;;;;;;6.20;5.60;;;;;;;24.14;100.00;96837.81;5045282;28;20210;-64
2023/08/23 01:13:29;;;;;;;5.57;5.18;;;;;;;24.10;100.00;96850.06;5044800;28;20205;-65
2023/08/23 01:15:55;;;;;;;8.35;5.38;;;;;;;24.11;100.00;96840.94;5045097;28;20211;-64
2023/08/23 01:18:25;;;;;;;5.47;5.03;;;;;;;24.08;100.00;96844.06;5043256;28;20202;-66
2023/08/23 01:20:53;;;;;;;5.75;5.15;;;;;;;24.01;100.00;96840.63;5045339;28;21475;-65
2023/08/23 01:23:23;;;;;;;6.57;4.82;;;;;;;23.99;100.00;96851.63;5044217;28;20257;-64
2023/08/23 01:25:50;;;;;;;5.82;5.22;;;;;;;23.99;100.00;96842.69;5041387;28;20663;-66
2023/08/23 01:28:17;;;;;;;5.75;5.10;;;;;;;23.96;100.00;96835.88;5041596;28;20199;-64
2023/08/23 01:30:44;;;;;;;6.30;5.75;;;;;;;23.93;100.00;96846.28;5040901;28;20214;-64
2023/08/23 01:33:14;;;;;;;5.65;5.15;;;;;;;23.89;100.00;96839.69;5022247;28;20616;-64
2023/08/23 01:35:46;;;;;;;6.45;5.85;;;;;;;23.87;100.00;96841.78;5041409;28;20234;-64
2023/08/23 01:38:12;;;;;;;6.35;5.13;;;;;;;23.86;100.00;96842.81;5040458;28;20520;-64
2023/08/23 01:40:43;;;;;;;6.20;5.60;;;;;;;23.81;100.00;96842.69;5040760;28;20500;-65
2023/08/23 01:43:10;;;;;;;5.53;5.15;;;;;;;23.81;100.00;96848.09;5040571;28;20306;-64
2023/08/23 01:45:36;;;;;;;5.25;4.95;;;;;;;23.78;100.00;96842.06;5040210;28;20249;-64
2023/08/23 01:48:03;;;;;;;6.18;5.68;;;;;;;23.77;100.00;96845.78;5040623;28;20211;-68
2023/08/23 01:50:29;;;;;;;6.28;5.50;;;;;;;23.76;100.00;96827.13;5040455;28;20211;-67
2023/08/23 01:52:56;;;;;;;5.90;5.40;;;;;;;23.70;100.00;96828.81;5040179;28;20660;-65
2023/08/23 01:55:24;;;;;;;6.30;5.40;;;;;;;23.67;100.00;96825.72;5040850;28;20200;-63
2023/08/23 01:57:52;;;;;;;5.75;5.18;;;;;;;23.66;100.00;96826.81;5041319;28;20195;-64
2023/08/23 02:00:18;;;;;;;5.68;5.18;;;;;;;23.63;100.00;96819.94;5042166;28;20204;-65
2023/08/23 02:02:45;;;;;;;5.78;5.28;;;;;;;23.62;100.00;96822.88;5043696;28;20608;-63
2023/08/23 02:05:11;;;;;;;6.07;5.47;;;;;;;23.54;100.00;96818.59;5043899;28;20548;-65
2023/08/23 02:07:39;;;;;;;9.18;5.50;;;;;;;23.56;100.00;96819.19;5043194;28;20200;-65
2023/08/23 02:10:06;;;;;;;6.50;5.63;;;;;;;23.56;100.00;96821.06;5044527;28;20203;-64
2023/08/23 02:12:33;;;;;;;6.55;5.15;;;;;;;23.55;100.00;96817.53;5041828;28;20551;-64
2023/08/23 02:15:01;;;;;;;6.15;5.65;;;;;;;23.54;100.00;96815.88;5040682;28;20197;-64
2023/08/23 02:17:27;;;;;;;8.32;5.40;;;;;;;23.53;100.00;96818.78;5040598;28;20219;-65
2023/08/23 02:19:54;;;;;;;6.00;5.50;;;;;;;23.51;100.00;96821.72;5040432;28;20236;-66
2023/08/23 02:22:21;;;;;;;7.53;6.05;;;;;;;23.45;100.00;96819.91;5040138;28;20204;-64
2023/08/23 02:24:48;;;;;;;6.25;5.45;;;;;;;23.45;100.00;96822.63;5021090;28;20232;-65
2023/08/23 02:27:14;;;;;;;6.80;5.80;;;;;;;23.44;100.00;96820.94;5039053;28;20640;-64
2023/08/23 02:29:41;;;;;;;6.60;6.03;;;;;;;23.44;100.00;96828.22;5039711;28;20257;-66
2023/08/23 02:32:08;;;;;;;5.47;5.07;;;;;;;23.47;100.00;96831.31;5022029;28;20215;-64
2023/08/23 02:34:35;;;;;;;5.50;5.10;;;;;;;23.48;100.00;96827.56;5043335;28;20207;-64
2023/08/23 02:37:03;;;;;;;6.97;5.65;;;;;;;23.46;100.00;96826.13;5042967;28;20233;-65
2023/08/23 02:39:32;;;;;;;7.28;5.45;;;;;;;23.43;100.00;96838.19;5043110;28;20204;-64
2023/08/23 02:41:59;;;;;;;6.60;5.53;;;;;;;23.41;100.00;96832.19;5042869;28;20200;-63
2023/08/23 02:44:28;;;;;;;5.60;5.20;;;;;;;23.36;100.00;96828.44;5043039;28;20207;-65
2023/08/23 02:46:55;;;;;;;6.13;5.60;;;;;;;23.35;100.00;96829.50;5046353;28;20211;-66
2023/08/23 02:49:23;;;;;;;7.70;6.05;;;;;;;23.28;100.00;96830.34;5047995;28;20221;-64
2023/08/23 02:51:49;;;;;;;5.95;5.47;;;;;;;23.21;100.00;96834.16;5047736;28;20238;-65
2023/08/23 02:54:16;;;;;;;5.72;5.10;;;;;;;23.17;100.00;96825.66;5047242;28;20200;-63
2023/08/23 02:56:47;;;;;;;10.30;5.78;;;;;;;23.18;100.00;96837.28;5044430;28;20650;-65
2023/08/23 02:59:13;;;;;;;5.68;5.20;;;;;;;23.21;100.00;96832.28;5045747;28;20211;-65
2023/08/23 03:01:42;;;;;;;6.28;5.20;;;;;;;23.18;100.00;96827.31;5046100;28;20203;-63
2023/08/23 03:04:08;;;;;;;6.97;5.75;;;;;;;23.21;100.00;96826.06;5043872;28;20292;-64
2023/08/23 03:06:36;;;;;;;5.97;5.32;;;;;;;23.18;100.00;96823.78;5044219;28;20234;-64
2023/08/23 03:09:03;;;;;;;6.25;5.35;;;;;;;23.17;100.00;96822.13;5044584;28;20653;-64
2023/08/23 03:11:29;;;;;;;8.27;5.85;;;;;;;23.12;100.00;96817.41;5044671;28;20860;-64
2023/08/23 03:13:57;;;;;;;5.18;4.88;;;;;;;23.11;100.00;96817.59;5044105;28;20214;-64
2023/08/23 03:16:23;;;;;;;6.35;5.75;;;;;;;23.03;100.00;96817.84;5044252;28;20207;-64
2023/08/23 03:18:51;;;;;;;6.03;5.53;;;;;;;23.02;100.00;96822.44;5043866;28;20207;-65
2023/08/23 03:21:17;;;;;;;5.88;5.30;;;;;;;23.03;100.00;96823.25;5045001;28;20219;-64
2023/08/23 03:23:45;;;;;;;6.50;5.82;;;;;;;23.03;100.00;96823.25;5045454;28;20219;-63
2023/08/23 03:26:13;;;;;;;6.40;5.38;;;;;;;23.00;100.00;96819.13;5043740;28;20214;-65
2023/08/23 03:28:40;;;;;;;7.13;5.70;;;;;;;22.97;100.00;96816.03;5043278;28;20210;-65
2023/08/23 03:31:08;;;;;;;6.45;5.85;;;;;;;22.93;100.00;96812.94;5043548;28;20200;-65
2023/08/23 03:33:34;;;;;;;6.90;5.45;;;;;;;22.91;100.00;96814.22;5043788;28;20211;-65
2023/08/23 03:36:01;;;;;;;7.60;5.72;;;;;;;22.84;100.00;96813.41;5042889;28;20208;-63
2023/08/23 03:38:28;;;;;;;6.75;6.10;;;;;;;22.86;100.00;96812.16;5043340;28;20208;-66
2023/08/23 03:40:55;;;;;;;7.50;6.03;;;;;;;22.84;100.00;96810.72;5042820;28;20285;-63
2023/08/23 03:43:24;;;;;;;7.75;6.28;;;;;;;22.82;100.00;96816.31;5042556;28;20230;-64
2023/08/23 03:45:51;;;;;;;7.18;5.75;;;;;;;22.81;100.00;96807.41;5041130;28;20608;-66
2023/08/23 03:48:17;;;;;;;6.32;5.70;;;;;;;22.77;100.00;96806.19;5042283;28;20196;-66
2023/08/23 03:50:44;;;;;;;6.53;5.30;;;;;;;22.76;100.00;96820.72;5042598;28;20207;-64
2023/08/23 03:53:10;;;;;;;6.60;6.00;;;;;;;22.76;100.00;96815.31;5042513;28;20204;-64
2023/08/23 03:55:37;;;;;;;7.10;5.63;;;;;;;22.77;100.00;96819.69;5041742;28;20195;-64
2023/08/23 03:58:06;;;;;;;6.63;5.47;;;;;;;22.70;100.00;96818.88;5041943;28;20207;-63
2023/08/23 04:00:34;;;;;;;6.00;5.50;;;;;;;22.69;100.00;96828.00;5041491;28;20218;-63
2023/08/23 04:03:02;;;;;;;11.13;5.60;;;;;;;22.69;100.00;96830.72;5042837;28;20196;-64
2023/08/23 04:05:29;;;;;;;8.93;6.03;;;;;;;22.67;100.00;96832.78;5041568;28;21434;-64
2023/08/23 04:07:55;;;;;;;7.13;5.75;;;;;;;22.65;100.00;96831.31;5041749;28;20644;-63
2023/08/23 04:10:23;;;;;;;5.88;5.47;;;;;;;22.60;100.00;96831.94;5041655;28;20207;-66
2023/08/23 04:12:52;;;;;;;6.60;5.80;;;;;;;22.58;100.00;96834.03;5041772;28;20206;-64
2023/08/23 04:15:21;;;;;;;5.95;5.30;;;;;;;22.58;100.00;96834.03;5041164;28;20203;-65
2023/08/23 04:17:49;;;;;;;6.57;5.82;;;;;;;22.57;100.00;96831.53;5042001;28;20195;-66
2023/08/23 04:20:16;;;;;;;6.85;5.88;;;;;;;22.57;100.00;96820.75;5040999;28;20200;-65
2023/08/23 04:22:43;;;;;;;6.43;5.75;;;;;;;22.58;100.00;96830.50;5041604;28;20207;-64
2023/08/23 04:25:11;;;;;;;6.40;5.78;;;;;;;22.52;100.00;96818.72;5040728;28;20237;-65
2023/08/23 04:27:37;;;;;;;6.30;5.90;;;;;;;22.50;100.00;96818.09;5040909;28;20202;-63
2023/08/23 04:30:06;;;;;;;7.03;5.53;;;;;;;22.51;100.00;96819.75;5041097;28;20218;-64
2023/08/23 04:32:34;;;;;;;6.78;5.80;;;;;;;22.53;100.00;96814.97;5041404;28;20273;-63
2023/08/23 04:35:00;;;;;;;5.93;5.53;;;;;;;22.55;100.00;96818.28;5042427;28;20204;-62
2023/08/23 04:37:27;;;;;;;6.85;6.18;;;;;;;22.55;100.00;96815.59;5040517;28;20252;-63
2023/08/23 04:39:53;;;;;;;6.10;5.53;;;;;;;22.54;100.00;96823.88;5040854;28;20203;-67
2023/08/23 04:42:20;;;;;;;8.25;6.05;;;;;;;22.54;100.00;96823.88;5040973;28;20214;-64
2023/08/23 04:44:46;;;;;;;6.47;5.88;;;;;;;22.54;100.00;96824.72;5053218;28;20210;-64
2023/08/23 04:47:13;;;;;;;6.05;5.43;;;;;;;22.48;100.00;96825.56;5059548;28;20218;-63
2023/08/23 04:49:41;;;;;;;6.45;5.85;;;;;;;22.46;100.00;96826.84;5047135;28;20225;-66
2023/08/23 04:52:07;;;;;;;6.43;5.82;;;;;;;;;;5040263;28;20208;-63
2023/08/23 04:54:35;;;;;;;6.32;5.72;;;;;;;22.45;100.00;96825.19;5052178;28;20203;-64
2023/08/23 04:57:05;;;;;;;7.47;6.15;;;;;;;22.43;100.00;96832.63;5057021;28;20200;-69
2023/08/23 04:59:32;;;;;;;6.13;5.53;;;;;;;22.48;100.00;96841.75;5056330;28;20196;-64
2023/08/23 05:02:00;;;;;;;7.25;6.07;;;;;;;;;;5050570;28;20217;-67
2023/08/23 05:04:27;;;;;;;6.60;6.10;;;;;;;22.57;100.00;96848.53;5062240;28;20254;-67
2023/08/23 05:06:55;;;;;;;7.18;6.28;;;;;;;22.57;100.00;96851.25;5062909;28;20219;-64
2023/08/23 05:09:22;;;;;;;6.63;6.03;;;;;;;22.57;100.00;96848.53;5057223;28;20298;-64
2023/08/23 05:11:48;;;;;;;7.00;6.30;;;;;;;22.60;100.00;96848.09;5043490;28;20537;-64
2023/08/23 05:14:16;;;;;;;6.43;5.82;;;;;;;22.66;100.00;96854.53;5042759;28;20215;-63
2023/08/23 05:16:43;;;;;;;6.47;5.68;;;;;;;22.69;100.00;96859.53;5042365;28;20207;-63
2023/08/23 05:19:10;;;;;;;6.90;6.38;;;;;;;22.71;100.00;96852.88;5044180;28;20229;-65
2023/08/23 05:21:36;;;;;;;6.32;5.80;;;;;;;22.75;100.00;96856.81;5044132;28;20199;-65
2023/08/23 05:24:06;;;;;;;6.82;6.13;;;;;;;22.79;100.00;96855.34;5052459;28;20206;-64
2023/08/23 05:26:36;;;;;;;7.10;6.32;;;;;;;22.84;100.00;96851.19;5052870;28;20207;-63
2023/08/23 05:29:02;;;;;;;7.80;6.15;;;;;;;22.90;100.00;96853.00;5054401;28;20199;-62
2023/08/23 05:31:29;;;;;;;6.25;5.72;;;;;;;22.95;100.00;96855.91;5049714;28;20214;-64
2023/08/23 05:33:55;;;;;;;7.10;6.00;;;;;;;23.00;100.00;96858.75;5048604;28;20202;-63
2023/08/23 05:36:22;;;;;;;6.50;5.93;;;;;;;23.11;100.00;96852.69;5047275;28;20203;-66
2023/08/23 05:38:50;;;;;;;7.95;5.88;;;;;;;23.24;100.00;96852.59;5042141;28;20208;-65
2023/08/23 05:41:18;;;;;;;8.43;6.15;;;;;;;23.42;100.00;96862.72;5043549;28;20199;-64
2023/08/23 05:43:44;;;;;;;7.47;6.30;;;;;;;23.66;100.00;96862.75;5042091;28;20625;-63
2023/08/23 05:46:12;;;;;;;6.32;5.75;;;;;;;23.95;100.00;96855.81;5042080;28;20224;-64
2023/08/23 05:48:39;;;;;;;6.45;5.85;;;;;;;24.12;100.00;96856.09;5042123;28;20200;-63
2023/08/23 05:51:06;;;;;;;7.97;6.53;;;;;;;24.31;100.00;96852.38;5041525;28;20200;-62
2023/08/23 05:53:34;;;;;;;8.20;6.15;;;;;;;24.55;100.00;96858.78;5041354;28;20234;-64
2023/08/23 05:56:00;;;;;;;6.32;5.72;;;;;;;24.82;100.00;96864.72;5041048;28;20626;-66
2023/08/23 05:58:28;;;;;;;6.35;5.75;;;;;;;25.10;100.00;96865.00;5039860;28;20199;-64
2023/08/23 06:00:56;;;;;;;7.97;5.90;;;;;;;25.31;100.00;96867.19;5039948;28;20215;-63
2023/08/23 06:03:22;;;;;;;6.47;5.88;;;;;;;25.48;100.00;96865.47;5040580;28;20423;-63
2023/08/23 06:05:53;;;;;;;6.85;6.25;;;;;;;25.63;100.00;96871.34;5020122;28;20223;-65
2023/08/23 06:08:20;;;;;;;6.80;6.10;;;;;;;25.80;100.00;96870.63;5021157;28;20222;-65
2023/08/23 06:10:46;;;;;;;7.05;5.82;;;;;;;25.93;100.00;96870.44;5024325;28;20218;-64
2023/08/23 06:13:13;;;;;;;9.32;5.90;;;;;;;26.08;100.00;96879.75;5024379;28;20204;-64
2023/08/23 06:15:40;;;;;;;7.30;5.95;;;;;;;26.24;100.00;96867.44;5024373;28;20613;-65
2023/08/23 06:18:07;;;;;;;6.65;6.05;;;;;;;26.36;100.00;96870.13;5023960;28;20231;-65
2023/08/23 06:20:33;;;;;;;7.13;5.45;;;;;;;26.55;100.00;96874.34;5023875;28;20208;-63
2023/08/23 06:23:00;;;;;;;7.13;5.43;;;;;;;26.64;99.69;96868.31;5024000;28;20209;-64
2023/08/23 06:25:26;;;;;;;6.40;5.88;;;;;;;26.81;98.57;96867.59;5024046;28;20208;-66
2023/08/23 06:27:53;;;;;;;6.75;6.10;;;;;;;26.96;96.36;96871.44;5023728;28;20203;-64
2023/08/23 06:30:20;;;;;;;7.07;6.05;;;;;;;27.08;93.77;96874.13;5023919;28;20211;-67
2023/08/23 06:32:48;;;;;;;7.35;6.07;;;;;;;27.25;93.30;96880.44;5023889;28;20208;-65
2023/08/23 06:35:16;;;;;;;6.82;5.75;;;;;;;27.34;92.70;96873.56;5024306;28;20299;-66
2023/08/23 06:37:43;;;;;;;7.15;5.43;;;;;;;27.48;90.91;96879.56;5020953;28;20506;-66
2023/08/23 06:40:12;;;;;;;7.43;5.40;;;;;;;27.62;91.19;96876.28;5023862;28;20192;-65
2023/08/23 06:42:39;;;;;;;6.15;5.55;;;;;;;27.76;90.93;96881.41;5023887;28;20216;-67
2023/08/23 06:45:08;;;;;;;7.32;6.05;;;;;;;27.90;90.40;96878.13;5023258;28;20243;-65
2023/08/23 06:47:36;;;;;;;7.00;6.28;;;;;;;28.05;87.89;96881.09;5022886;28;20308;-66
2023/08/23 06:50:04;;;;;;;6.63;6.00;;;;;;;28.27;87.92;96877.66;5023869;28;20191;-65
2023/08/23 06:52:31;;;;;;;5.90;5.30;;;;;;;28.26;86.91;96879.56;5023563;28;20542;-63
2023/08/23 06:55:00;;;;;;;5.53;5.13;;;;;;;28.42;86.25;96878.69;5023143;28;20211;-64
2023/08/23 06:57:30;;;;;;;6.63;5.95;;;;;;;28.60;85.55;96878.41;5022833;28;20200;-65
2023/08/23 06:59:57;;;;;;;6.80;5.68;;;;;;;28.66;86.15;96882.84;5023005;28;20636;-66
2023/08/23 07:02:23;;;;;;;8.18;5.45;;;;;;;28.69;81.66;96880.75;5030621;28;20212;-64
2023/08/23 07:04:51;;;;;;;6.32;5.72;;;;;;;28.81;83.34;96879.53;5050260;28;20317;-69
2023/08/23 07:07:19;;;;;;;6.20;5.35;;;;;;;28.96;83.79;96881.63;5049628;28;20219;-64
2023/08/23 07:09:46;;;;;;;6.40;5.80;;;;;;;28.94;85.24;96878.38;5046569;28;20207;-63
2023/08/23 07:12:12;;;;;;;7.47;5.45;;;;;;;29.00;82.25;96871.88;5047217;28;20210;-65
2023/08/23 07:14:39;;;;;;;8.07;6.10;;;;;;;29.30;81.83;96876.91;5046798;28;20211;-64
2023/08/23 07:17:05;;;;;;;7.50;5.32;;;;;;;29.40;80.22;96872.41;5045266;28;20203;-65
2023/08/23 07:19:32;;;;;;;6.50;5.90;;;;;;;29.38;79.72;96876.44;5045344;28;20214;-64
2023/08/23 07:21:59;;;;;;;6.40;5.65;;;;;;;29.45;80.19;96877.88;5044939;28;20200;-63
2023/08/23 07:24:26;;;;;;;6.30;5.70;;;;;;;29.55;79.98;96875.25;5044266;28;20241;-66
2023/08/23 07:26:55;;;;;;;9.18;6.25;;;;;;;29.39;79.42;96881.66;5042995;28;20234;-66
2023/08/23 07:29:21;;;;;;;9.73;5.93;;;;;;;29.65;80.46;96878.09;5044217;28;20707;-63
2023/08/23 07:31:48;;;;;;;7.72;6.13;;;;;;;29.73;79.83;96881.41;5043617;28;20229;-64
2023/08/23 07:34:14;;;;;;;6.72;6.07;;;;;;;29.62;77.74;96875.88;5043627;28;20208;-64
2023/08/23 07:36:40;;;;;;;8.48;6.03;;;;;;;29.71;78.20;96883.59;5044675;28;20214;-67
2023/08/23 07:39:08;;;;;;;8.38;5.97;;;;;;;29.96;74.80;96881.13;5044494;28;20207;-65
2023/08/23 07:41:37;;;;;;;6.40;5.50;;;;;;;29.96;77.85;96887.41;5044591;28;20208;-64
2023/08/23 07:44:03;;;;;;;6.35;5.55;;;;;;;30.16;73.64;96885.91;5043359;28;20218;-67
2023/08/23 07:46:30;;;;;;;6.68;5.53;;;;;;;30.20;77.81;96887.88;5042910;28;20235;-64
2023/08/23 07:48:56;;;;;;;6.28;5.68;;;;;;;30.27;76.06;96876.72;5043670;28;20200;-63
2023/08/23 07:51:23;;;;;;;5.72;5.07;;;;;;;30.16;78.10;96883.19;5043139;28;20208;-64
2023/08/23 07:53:49;;;;;;;6.25;5.65;;;;;;;30.21;75.14;96886.78;5042116;28;20537;-66
2023/08/23 07:56:17;;;;;;;6.05;5.55;;;;;;;30.17;77.24;96874.75;5041889;28;20222;-67
2023/08/23 07:58:45;;;;;;;11.00;6.50;;;;;;;30.08;73.07;96879.03;5041826;28;20195;-66
2023/08/23 08:01:12;;;;;;;6.70;5.55;;;;;;;30.10;76.75;96887.78;5041738;28;20223;-66
2023/08/23 08:03:40;;;;;;;8.70;5.68;;;;;;;30.16;76.29;96886.75;5041672;28;20640;-65
2023/08/23 08:06:07;;;;;;;6.65;5.88;;;;;;;30.38;77.54;96884.72;5041792;28;20294;-65
2023/08/23 08:08:36;;;;;;;9.25;6.25;;;;;;;30.48;76.93;96884.00;5041758;28;20222;-64
2023/08/23 08:11:02;;;;;;;7.13;5.63;;;;;;;30.63;75.60;96875.09;5042375;28;20251;-66
2023/08/23 08:13:29;;;;;;;6.43;5.57;;;;;;;30.89;73.68;96876.88;5042132;28;20204;-63
2023/08/23 08:15:59;;;;;;;5.75;5.22;;;;;;;30.88;75.16;96884.25;5041849;28;20208;-66
2023/08/23 08:18:26;;;;;;;6.47;5.80;;;;;;;31.03;74.17;96883.53;5041500;28;20266;-63
2023/08/23 08:20:52;;;;;;;6.65;5.97;;;;;;;31.03;72.81;96880.78;5042270;28;20286;-63
2023/08/23 08:23:21;;;;;;;7.47;5.93;;;;;;;31.03;72.91;96887.09;5041314;28;20199;-63
2023/08/23 08:25:47;;;;;;;8.00;5.65;;;;;;;31.06;74.81;96883.81;5041713;28;20196;-65
2023/08/23 08:28:14;;;;;;;10.93;6.32;;;;;;;30.83;72.34;96877.91;5041916;28;20235;-65
2023/08/23 08:30:40;;;;;;;6.60;5.93;;;;;;;30.75;71.26;96878.44;5040768;28;20219;-66
2023/08/23 08:33:08;;;;;;;6.80;6.07;;;;;;;30.89;72.19;96879.59;5041754;28;20199;-64
2023/08/23 08:35:35;;;;;;;9.35;5.88;;;;;;;31.14;73.30;96866.09;5042074;28;20242;-64
2023/08/23 08:38:01;;;;;;;6.78;5.95;;;;;;;31.29;70.58;96868.84;5041686;28;20849;-65
2023/08/23 08:40:28;;;;;;;9.18;6.10;;;;;;;31.42;71.84;96862.91;5041829;28;20654;-64
2023/08/23 08:42:55;;;;;;;8.02;5.70;;;;;;;31.40;70.24;96866.97;5041802;28;20211;-64
2023/08/23 08:45:21;;;;;;;6.70;6.00;;;;;;;31.41;69.46;96863.16;5041196;28;20543;-63
2023/08/23 08:47:49;;;;;;;6.15;5.65;;;;;;;31.48;70.07;96861.81;5042529;28;20234;-64
2023/08/23 08:50:17;;;;;;;6.35;5.72;;;;;;;31.58;71.80;96867.31;5041705;28;20287;-65
2023/08/23 08:52:49;;;;;;;7.45;5.90;;;;;;;31.54;68.89;96862.66;5042136;28;20207;-65
2023/08/23 08:55:17;;;;;;;10.43;5.95;;;;;;;31.46;70.84;96869.44;5042645;28;20209;-64
2023/08/23 08:57:44;;;;;;;10.15;6.10;;;;;;;31.63;73.10;96865.69;5042284;28;20192;-63
2023/08/23 09:00:12;;;;;;;8.38;5.80;;;;;;;31.68;72.64;96869.25;5042843;28;20207;-66
2023/08/23 09:02:40;;;;;;;6.90;6.15;;;;;;;31.76;68.12;96867.88;5041599;28;20547;-64
2023/08/23 09:05:07;;;;;;;6.50;6.00;;;;;;;31.92;68.42;96875.03;5045845;28;20227;-66
2023/08/23 09:07:35;;;;;;;8.05;6.47;;;;;;;31.86;68.47;96871.44;5064436;28;20224;-69
2023/08/23 09:10:02;;;;;;;6.75;6.18;;;;;;;31.92;70.30;96869.56;5073334;28;20195;-69
2023/08/23 09:12:29;;;;;;;7.40;5.90;;;;;;;31.86;67.54;96873.34;5057658;28;20195;-65
2023/08/23 09:14:57;;;;;;;8.88;6.75;;;;;;;31.87;68.07;96875.84;5046304;28;20691;-64
2023/08/23 09:17:23;;;;;;;6.68;5.93;;;;;;;32.12;67.85;96872.31;5045588;28;20199;-63
2023/08/23 09:19:52;;;;;;;7.90;5.97;;;;;;;32.43;68.13;96868.44;5044431;28;20294;-65
2023/08/23 09:22:21;;;;;;;6.80;6.30;;;;;;;32.36;68.26;96878.88;5044221;28;20629;-63
2023/08/23 09:24:49;;;;;;;8.07;6.00;;;;;;;32.30;66.44;96869.03;5044322;28;20222;-66
2023/08/23 09:27:16;;;;;;;6.70;6.07;;;;;;;32.28;65.74;96873.09;5043232;28;20232;-64
2023/08/23 09:29:44;;;;;;;9.90;6.45;;;;;;;31.96;67.58;96865.97;5042727;28;20291;-64
2023/08/23 09:32:10;;;;;;;6.60;5.95;;;;;;;32.05;66.94;96871.75;5043064;28;20226;-64
2023/08/23 09:34:37;;;;;;;7.10;6.50;;;;;;;32.12;68.91;96857.81;5042106;28;20227;-64
2023/08/23 09:37:06;;;;;;;7.20;6.22;;;;;;;32.36;68.34;96873.38;5042704;28;20218;-64
2023/08/23 09:39:33;;;;;;;7.47;6.75;;;;;;;32.39;68.18;96866.53;5041920;28;20207;-65
2023/08/23 09:42:04;;;;;;;6.88;6.22;;;;;;;32.71;67.95;96868.97;5042837;28;20210;-63
2023/08/23 09:44:31;;;;;;;10.82;6.15;;;;;;;32.84;66.86;96863.72;5044842;28;21387;-63
2023/08/23 09:47:00;;;;;;;6.90;6.35;;;;;;;32.86;66.71;96867.00;5045694;28;20215;-66
2023/08/23 09:49:31;;;;;;;6.47;5.88;;;;;;;33.00;66.17;96856.25;5045462;28;20286;-64
2023/08/23 09:51:59;;;;;;;7.40;6.70;;;;;;;33.08;67.38;96855.69;5045717;28;20512;-64
2023/08/23 09:54:30;;;;;;;7.18;6.45;;;;;;;33.21;65.73;96852.34;5045484;28;20200;-64
2023/08/23 09:56:57;;;;;;;7.05;5.90;;;;;;;33.44;63.62;96846.19;5046008;28;20191;-64
2023/08/23 09:59:25;;;;;;;10.65;6.57;;;;;;;33.64;66.22;96849.94;5045899;28;20218;-66
2023/08/23 10:01:53;;;;;;;6.53;6.07;;;;;;;33.73;64.66;96840.81;5044495;28;20204;-67
2023/08/23 10:04:19;;;;;;;6.85;5.80;;;;;;;33.74;64.83;96841.63;5045301;28;20239;-66
2023/08/23 10:06:48;;;;;;;7.85;6.22;;;;;;;33.57;63.61;96843.94;5045250;28;20219;-65
2023/08/23 10:09:16;;;;;;;6.43;5.88;;;;;;;33.71;64.16;96840.28;5046610;28;20199;-63
2023/08/23 10:11:43;;;;;;;7.57;6.30;;;;;;;33.98;63.74;96832.38;5045830;28;20218;-64
2023/08/23 10:14:10;;;;;;;8.85;5.85;;;;;;;33.92;62.32;96835.47;5044207;28;20298;-66
2023/08/23 10:16:39;;;;;;;7.72;6.22;;;;;;;34.07;62.02;96826.28;5043777;28;20290;-64
2023/08/23 10:19:05;;;;;;;6.95;6.28;;;;;;;34.10;62.21;96829.28;5044289;28;20214;-64
2023/08/23 10:21:32;;;;;;;7.03;6.10;;;;;;;33.93;61.62;96821.47;5043990;28;20210;-66
2023/08/23 10:24:05;;;;;;;7.53;6.80;;;;;;;33.77;62.10;96828.16;5043881;28;20207;-65
2023/08/23 10:26:44;;;;;;;8.27;6.40;;;;;;;33.59;60.91;96815.09;5042916;28;20610;-66
2023/08/23 10:29:13;;;;;;;7.72;7.03;;;;;;;33.89;63.37;96816.84;5043907;28;20632;-64
2023/08/23 10:31:52;;;;;;;6.93;6.43;;;;;;;34.24;62.75;96827.53;5043859;28;20199;-64
2023/08/23 10:34:24;;;;;;;11.23;6.47;;;;;;;33.99;63.65;96811.25;5043538;28;20207;-66
2023/08/23 10:36:52;;;;;;;7.47;6.78;;;;;;;34.00;63.18;96812.91;5044365;28;20191;-63
2023/08/23 10:39:23;;;;;;;6.85;6.35;;;;;;;34.43;61.80;96817.47;5043557;28;20265;-63
2023/08/23 10:41:52;;;;;;;10.73;6.50;;;;;;;34.46;61.47;96814.13;5044554;28;20977;-64
2023/08/23 10:44:19;;;;;;;6.68;6.18;;;;;;;34.72;61.90;96819.38;5043079;28;20240;-65
2023/08/23 10:46:47;;;;;;;9.10;6.10;;;;;;;34.93;59.83;96816.06;5043800;28;20538;-65
2023/08/23 10:49:16;;;;;;;6.65;6.15;;;;;;;34.91;60.59;96812.81;5043112;28;20224;-64
2023/08/23 10:51:43;;;;;;;6.97;6.20;;;;;;;34.73;58.36;96815.50;5043031;28;20207;-64
2023/08/23 10:54:11;;;;;;;7.40;6.70;;;;;;;34.35;60.17;96820.00;5042234;28;20204;-66
2023/08/23 10:56:37;;;;;;;8.52;6.32;;;;;;;34.19;61.58;96824.03;5042345;28;20587;-65
2023/08/23 10:59:06;;;;;;;7.32;6.38;;;;;;;34.18;63.04;96822.38;5042798;28;20655;-64
2023/08/23 11:01:33;;;;;;;7.10;6.40;;;;;;;33.74;61.00;96804.06;5043153;28;20711;-64
2023/08/23 11:04:02;;;;;;;8.00;6.35;;;;;;;33.60;63.18;96804.97;5043464;28;20242;-64
2023/08/23 11:06:29;;;;;;;7.22;6.45;;;;;;;33.57;63.81;96809.09;5044411;28;20195;-66
2023/08/23 11:08:57;;;;;;;7.22;6.57;;;;;;;33.69;62.21;96806.84;5046400;28;20215;-64
2023/08/23 11:11:28;;;;;;;6.65;6.07;;;;;;;33.95;62.19;96800.03;5045973;28;20219;-68
2023/08/23 11:13:55;;;;;;;7.53;6.22;;;;;;;34.21;61.66;96808.91;5045107;28;20199;-65
2023/08/23 11:16:22;;;;;;;7.95;5.93;;;;;;;34.41;62.48;96799.63;5044389;28;20207;-67
2023/08/23 11:18:49;;;;;;;7.78;5.93;;;;;;;34.20;59.17;96798.19;5044077;28;20257;-64
2023/08/23 11:21:17;;;;;;;6.60;5.80;;;;;;;34.32;61.50;96788.47;5044512;28;20208;-65
2023/08/23 11:23:43;;;;;;;5.88;5.35;;;;;;;34.55;60.38;96788.75;5043675;28;20232;-64
2023/08/23 11:26:09;;;;;;;5.93;5.47;;;;;;;34.85;61.25;96793.94;5042877;28;20207;-64
2023/08/23 11:28:38;;;;;;;5.70;5.30;;;;;;;34.87;59.30;96787.00;5043403;28;20222;-64
2023/08/23 11:31:06;;;;;;;5.13;4.63;;;;;;;35.03;56.63;96790.41;5046759;28;20242;-66